Wye River — WDE3583 — position and weather

sailwx.info

Track history (hours):
 
Tides and Currents Weather Stations Pressure Air Temp Water Temp Dewpoint Dewpoint Depression Visibility Wind Speed Wind Dir Waves Ship Positions

Wye River

Owner: Vane Line Bunkering, Inc., Baltimore, MD. More information available from US FCC via Universal Licensing System and Coast Guard Vessel Documentation Center.

Last reported at 2014-Dec-18 17:04 UTC. Time now 2014-Dec-22 12:03 UTC.
Position N 29°25' W 094°49'.

Length 30 m; draft 4.3 m.

Type: Towing. MMSI: 367341190.

Date/timePositionNaut miles runAvg speedWind from/ knotsBaromVisibWave heightAir tempDewpointWater temp
2014-Dec-18 17:04N 29°25' W 094°49'5 9.6
2014-Dec-18 16:33N 29°29' W 094°52'9 8.9
2014-Dec-18 15:33N 29°37' W 094°57'8 8.2
2014-Dec-18 14:33N 29°44' W 095°02'7 6.6
2014-Dec-18 13:31N 29°45' W 095°10'2 0.2
2014-Dec-18 01:32N 29°44' W 095°12'0 0.0
2014-Dec-17 17:31N 29°44' W 095°12'0 0.0
2014-Dec-17 15:33N 29°44' W 095°12'0 0.0
2014-Dec-17 14:34N 29°44' W 095°12'7 0.8
2014-Dec-17 05:04N 29°45' W 095°04'4 7.9
2014-Dec-17 04:33N 29°42' W 095°01'9 9.5
2014-Dec-17 03:34N 29°34' W 094°55'  
2014-Dec-14 01:33N 27°37' W 082°47'12 9.2
2014-Dec-14 00:15N 27°41' W 082°35'6 9.2
2014-Dec-13 23:33N 27°47' W 082°31'9 8.6
2014-Dec-13 22:33N 27°54' W 082°26'2 1.8
2014-Dec-13 21:33N 27°56' W 082°26'0 0.0
2014-Dec-13 20:33N 27°56' W 082°26'0 0.0
2014-Dec-13 19:33N 27°56' W 082°26'0 0.0
2014-Dec-13 18:33N 27°56' W 082°26'0 0.0
2014-Dec-13 17:33N 27°56' W 082°26'0 0.0
2014-Dec-13 16:33N 27°56' W 082°26'1 1.2
2014-Dec-13 15:33N 27°55' W 082°27'0 0.2
2014-Dec-13 14:33N 27°55' W 082°27'1 1.3
2014-Dec-13 13:33N 27°56' W 082°26'0 0.0
2014-Dec-13 12:33N 27°56' W 082°26'0 0.0
2014-Dec-13 11:33N 27°56' W 082°26'0 0.0
2014-Dec-13 10:33N 27°56' W 082°26'0 0.0
2014-Dec-13 09:33N 27°56' W 082°26'0 0.0
2014-Dec-13 08:33N 27°56' W 082°26'0 0.0
2014-Dec-13 07:33N 27°56' W 082°26'0 0.0
2014-Dec-13 06:33N 27°56' W 082°26'0 0.0
2014-Dec-13 05:33N 27°56' W 082°26'0 0.0
2014-Dec-13 04:33N 27°56' W 082°26'0 0.0
2014-Dec-13 03:33N 27°56' W 082°26'0 0.0
2014-Dec-13 02:32N 27°56' W 082°26'0 0.0
2014-Dec-13 01:33N 27°56' W 082°26'0 0.0
2014-Dec-13 00:33N 27°56' W 082°26'1 1.0
2014-Dec-12 23:33N 27°55' W 082°27'6 5.9
2014-Dec-12 22:33N 27°49' W 082°27'  
Track history (hours):
 
Tides and Currents Weather Stations Pressure Air Temp Water Temp Dewpoint Dewpoint Depression Visibility Wind Speed Wind Dir Waves Ship Positions

Wye River

Owner: Vane Line Bunkering, Inc., Baltimore, MD. More information available from US FCC via Universal Licensing System and Coast Guard Vessel Documentation Center.

Last reported at 2014-Dec-18 17:04 UTC. Time now 2014-Dec-22 12:03 UTC.
Position N 29°25' W 094°49'.

Length 30 m; draft 4.3 m.

Type: Towing. MMSI: 367341190.

Date/timePositionNaut miles runAvg speedWind from/ knotsBaromVisibWave heightAir tempDewpointWater temp
2014-Dec-18 17:04N 29°25' W 094°49'5 9.6
2014-Dec-18 16:33N 29°29' W 094°52'9 8.9
2014-Dec-18 15:33N 29°37' W 094°57'8 8.2
2014-Dec-18 14:33N 29°44' W 095°02'7 6.6
2014-Dec-18 13:31N 29°45' W 095°10'2 0.2
2014-Dec-18 01:32N 29°44' W 095°12'0 0.0
2014-Dec-17 17:31N 29°44' W 095°12'0 0.0
2014-Dec-17 15:33N 29°44' W 095°12'0 0.0
2014-Dec-17 14:34N 29°44' W 095°12'7 0.8
2014-Dec-17 05:04N 29°45' W 095°04'4 7.9
2014-Dec-17 04:33N 29°42' W 095°01'9 9.5
2014-Dec-17 03:34N 29°34' W 094°55'  
2014-Dec-14 01:33N 27°37' W 082°47'12 9.2
2014-Dec-14 00:15N 27°41' W 082°35'6 9.2
2014-Dec-13 23:33N 27°47' W 082°31'9 8.6
2014-Dec-13 22:33N 27°54' W 082°26'2 1.8
2014-Dec-13 21:33N 27°56' W 082°26'0 0.0
2014-Dec-13 20:33N 27°56' W 082°26'0 0.0
2014-Dec-13 19:33N 27°56' W 082°26'0 0.0
2014-Dec-13 18:33N 27°56' W 082°26'0 0.0
2014-Dec-13 17:33N 27°56' W 082°26'0 0.0
2014-Dec-13 16:33N 27°56' W 082°26'1 1.2
2014-Dec-13 15:33N 27°55' W 082°27'0 0.2
2014-Dec-13 14:33N 27°55' W 082°27'1 1.3
2014-Dec-13 13:33N 27°56' W 082°26'0 0.0
2014-Dec-13 12:33N 27°56' W 082°26'0 0.0
2014-Dec-13 11:33N 27°56' W 082°26'0 0.0
2014-Dec-13 10:33N 27°56' W 082°26'0 0.0
2014-Dec-13 09:33N 27°56' W 082°26'0 0.0
2014-Dec-13 08:33N 27°56' W 082°26'0 0.0
2014-Dec-13 07:33N 27°56' W 082°26'0 0.0
2014-Dec-13 06:33N 27°56' W 082°26'0 0.0
2014-Dec-13 05:33N 27°56' W 082°26'0 0.0
2014-Dec-13 04:33N 27°56' W 082°26'0 0.0
2014-Dec-13 03:33N 27°56' W 082°26'0 0.0
2014-Dec-13 02:32N 27°56' W 082°26'0 0.0
2014-Dec-13 01:33N 27°56' W 082°26'0 0.0
2014-Dec-13 00:33N 27°56' W 082°26'1 1.0
2014-Dec-12 23:33N 27°55' W 082°27'6 5.9
2014-Dec-12 22:33N 27°49' W 082°27'  

Dump ship's entire track history